Time;durP1;ratioP1;P1;durP2;ratioP2;P2;SDS_P1;SDS_P2;PMS_P1;PMS_P2;Temp;Humidity;BMP_temperature;BMP_pressure;BME280_temperature;BME280_humidity;BME280_pressure;Samples;Min_cycle;Max_cycle;Signal;HPM_P1;HPM_P2
2023/10/01 00:01:00;;;;;;;8.10;7.30;;;;;;;;;;10107169;28;20075;-84
2023/10/01 00:05:54;;;;;;;8.27;6.43;;;;;;;;;;10107868;28;20069;-85
2023/10/01 00:10:48;;;;;;;7.13;6.28;;;;;;;;;;10107645;28;20072;-84
2023/10/01 00:15:42;;;;;;;8.52;7.28;;;;;;;;;;10106509;28;20132;-84
2023/10/01 00:20:37;;;;;;;12.10;7.00;;;;;;;;;;10120099;28;20139;-84
2023/10/01 00:25:31;;;;;;;8.98;7.18;;;;;;;;;;10107423;28;20053;-84
2023/10/01 00:30:31;;;;;;;8.05;6.35;;;;;;;;;;10106549;28;20124;-85
2023/10/01 00:35:29;;;;;;;8.30;6.93;;;;;;;;;;10105783;28;20045;-84
2023/10/01 00:40:23;;;;;;;8.95;7.05;;;;;;;;;;10106663;28;20057;-84
2023/10/01 00:45:20;;;;;;;10.45;7.18;;;;;;;;;;10089520;28;20057;-85
2023/10/01 00:50:16;;;;;;;11.25;6.97;;;;;;;;;;10115101;28;20045;-84
2023/10/01 00:55:11;;;;;;;13.88;7.32;;;;;;;;;;10105672;28;20063;-83
2023/10/01 01:00:09;;;;;;;8.57;6.75;;;;;;;;;;10107991;28;20503;-83
2023/10/01 01:05:20;;;;;;;8.18;7.28;;;;;;;;;;10106711;28;20032;-85
2023/10/01 01:10:16;;;;;;;12.38;7.30;;;;;;;;;;10106346;28;20526;-83
2023/10/01 01:15:12;;;;;;;14.15;8.52;;;;;;;;;;10087352;28;20110;-83
2023/10/01 01:20:13;;;;;;;11.95;8.07;;;;;;;;;;10105721;28;20480;-83
2023/10/01 01:25:10;;;;;;;10.13;7.60;;;;;;;;;;10105635;28;20086;-84
2023/10/01 01:30:09;;;;;;;11.57;7.38;;;;;;;;;;10106390;28;20052;-84
2023/10/01 01:35:05;;;;;;;14.65;7.35;;;;;;;;;;10087886;28;20041;-83
2023/10/01 01:40:08;;;;;;;11.82;7.45;;;;;;;;;;10089276;28;20061;-82
2023/10/01 01:50:31;;;;;;;9.20;7.65;;;;;;;;;;10026939;28;20132;-85
2023/10/01 01:55:29;;;;;;;11.00;7.35;;;;;;;;;;10095302;28;20052;-84
2023/10/01 02:00:25;;;;;;;7.78;6.97;;;;;;;;;;10095366;28;20455;-85
2023/10/01 02:05:20;;;;;;;7.60;6.88;;;;;;;;;;10113275;28;20060;-84
2023/10/01 02:10:16;;;;;;;8.27;7.30;;;;;;;;;;10111559;28;20356;-84
2023/10/01 02:15:10;;;;;;;8.25;6.72;;;;;;;;;;10114961;28;20060;-84
2023/10/01 02:20:12;;;;;;;8.45;7.05;;;;;;;;;;10126480;28;20052;-84
2023/10/01 02:25:10;;;;;;;9.50;7.30;;;;;;;;;;10138504;28;20041;-84
2023/10/01 02:30:16;;;;;;;14.93;8.40;;;;;;;;;;10118396;28;20101;-84
2023/10/01 02:35:34;;;;;;;10.57;7.57;;;;;;;;;;10111779;28;20053;-84
2023/10/01 02:40:25;;;;;;;9.15;7.68;;;;;;;;;;10110391;28;20072;-84
2023/10/01 02:45:34;;;;;;;12.20;9.82;;;;;;;;;;10110161;28;20067;-83
2023/10/01 02:50:28;;;;;;;;;;;;;;;;;;10109997;28;20136;-84
2023/10/01 02:55:26;;;;;;;13.05;11.80;;;;;;;;;;10111162;28;20351;-83
2023/10/01 03:00:30;;;;;;;10.98;9.85;;;;;;;;;;10108434;28;20459;-84
2023/10/01 03:05:36;;;;;;;10.75;8.80;;;;;;;;;;10091991;28;20051;-84
2023/10/01 03:10:48;;;;;;;9.93;8.73;;;;;;;;;;10110373;28;20076;-84
2023/10/01 03:21:33;;;;;;;16.17;12.13;;;;;;;;;;10110176;28;20036;-83
2023/10/01 03:26:33;;;;;;;11.57;9.85;;;;;;;;;;10105390;28;20377;-84
2023/10/01 03:31:53;;;;;;;12.75;8.98;;;;;;;;;;10108725;28;20053;-84
2023/10/01 03:37:02;;;;;;;9.73;8.73;;;;;;;;;;10115889;28;20048;-84
2023/10/01 03:42:21;;;;;;;12.40;9.35;;;;;;;;;;10108994;28;20169;-84
2023/10/01 03:47:15;;;;;;;11.48;9.90;;;;;;;;;;10117467;28;20129;-84
2023/10/01 03:52:13;;;;;;;13.60;10.60;;;;;;;;;;10117723;28;20077;-84
2023/10/01 03:57:11;;;;;;;10.70;9.48;;;;;;;;;;10108968;28;20052;-84
2023/10/01 04:02:28;;;;;;;10.93;9.70;;;;;;;;;;10106968;28;20056;-84
2023/10/01 04:07:26;;;;;;;10.60;9.65;;;;;;;;;;10105315;28;20045;-83
2023/10/01 04:12:37;;;;;;;11.77;10.65;;;;;;;;;;10108321;28;20056;-83
2023/10/01 04:18:09;;;;;;;11.20;9.88;;;;;;;;;;10120462;28;20048;-84
2023/10/01 04:23:04;;;;;;;11.02;9.82;;;;;;;;;;10127799;28;20602;-84
2023/10/01 04:28:19;;;;;;;12.35;10.02;;;;;;;;;;10110091;28;20052;-85
2023/10/01 04:33:34;;;;;;;11.88;10.77;;;;;;;;;;10120625;28;20072;-84
2023/10/01 04:38:51;;;;;;;14.10;9.65;;;;;;;;;;10107687;28;20041;-84
2023/10/01 04:44:08;;;;;;;9.20;8.30;;;;;;;;;;10112484;28;20503;-83
2023/10/01 04:54:28;;;;;;;13.93;12.55;;;;;;;;;;10107688;28;20514;-84
2023/10/01 04:59:24;;;;;;;12.13;10.88;;;;;;;;;;10108380;28;20107;-84
2023/10/01 05:04:19;;;;;;;14.77;11.82;;;;;;;;;;10106211;28;20132;-84
2023/10/01 05:09:14;;;;;;;14.98;13.48;;;;;;;;;;10106603;28;20471;-84
2023/10/01 05:14:11;;;;;;;22.38;18.33;;;;;;;;;;10107770;28;20053;-84
2023/10/01 05:19:14;;;;;;;15.30;13.50;;;;;;;;;;10109297;28;20126;-84
2023/10/01 05:24:09;;;;;;;16.58;12.45;;;;;;;;;;10111687;28;20072;-83
2023/10/01 05:29:05;;;;;;;14.32;12.85;;;;;;;;;;10113469;28;20098;-83
2023/10/01 05:34:00;;;;;;;15.38;13.18;;;;;;;;;;10113784;28;20106;-86
2023/10/01 05:38:54;;;;;;;12.63;9.93;;;;;;;;;;10113375;28;20037;-84
2023/10/01 05:43:53;;;;;;;11.15;9.07;;;;;;;;;;10131181;28;20402;-84
2023/10/01 05:48:49;;;;;;;10.88;9.23;;;;;;;;;;10110930;28;20051;-82
2023/10/01 05:53:43;;;;;;;37.42;10.50;;;;;;;;;;10111273;28;20045;-85
2023/10/01 05:58:39;;;;;;;11.27;9.63;;;;;;;;;;10115067;28;20132;-85
2023/10/01 06:03:34;;;;;;;10.18;8.80;;;;;;;;;;10116663;28;20065;-87
2023/10/01 06:08:44;;;;;;;10.48;8.50;;;;;;;;;;10116056;28;20040;-86
2023/10/01 06:13:39;;;;;;;9.20;8.30;;;;;;;;;;10127812;28;20060;-86
2023/10/01 06:18:41;;;;;;;15.15;9.35;;;;;;;;;;10116858;28;20045;-85
2023/10/01 06:23:49;;;;;;;10.68;9.57;;;;;;;;;;10136673;28;20167;-86
2023/10/01 06:28:48;;;;;;;9.88;8.88;;;;;;;;;;10112911;28;20049;-86
2023/10/01 06:33:42;;;;;;;13.18;8.35;;;;;;;;;;10123213;28;20484;-86
2023/10/01 06:38:38;;;;;;;9.95;8.00;;;;;;;;;;10127682;28;20440;-84
2023/10/01 06:43:44;;;;;;;11.07;8.40;;;;;;;;;;10129451;28;20049;-85
2023/10/01 06:48:39;;;;;;;14.30;11.73;;;;;;;;;;10124667;28;20053;-85
2023/10/01 06:53:47;;;;;;;16.40;12.88;;;;;;;;;;10112147;28;20572;-84
2023/10/01 06:58:41;;;;;;;14.07;11.65;;;;;;;;;;10121176;28;20063;-84
2023/10/01 07:03:36;;;;;;;12.13;10.93;;;;;;;;;;10118570;28;20558;-85
2023/10/01 07:08:37;;;;;;;16.35;11.25;;;;;;;;;;10108396;28;20045;-84
2023/10/01 07:13:32;;;;;;;15.55;12.27;;;;;;;;;;10107502;28;20354;-85
2023/10/01 07:18:26;;;;;;;15.32;11.13;;;;;;;;;;10114555;28;20072;-84
2023/10/01 07:23:21;;;;;;;19.67;14.35;;;;;;;;;;10108619;28;20549;-85
2023/10/01 07:28:18;;;;;;;19.58;14.48;;;;;;;;;;10110321;28;20053;-85
2023/10/01 07:33:33;;;;;;;20.80;15.50;;;;;;;;;;10110949;28;20098;-85
2023/10/01 07:38:30;;;;;;;16.95;15.18;;;;;;;;;;10111053;28;20411;-85
2023/10/01 07:43:26;;;;;;;14.00;12.65;;;;;;;;;;10107723;28;20044;-85
2023/10/01 07:48:29;;;;;;;16.92;11.95;;;;;;;;;;10089369;28;20072;-84
2023/10/01 07:53:23;;;;;;;11.85;10.20;;;;;;;;;;10107970;28;20386;-84
2023/10/01 07:58:23;;;;;;;14.80;11.02;;;;;;;;;;10100293;28;20079;-85
2023/10/01 08:08:35;;;;;;;11.77;9.68;;;;;;;;;;10117741;28;21351;-85
2023/10/01 08:13:30;;;;;;;9.65;8.70;;;;;;;;;;10141798;28;20067;-84
2023/10/01 08:18:34;;;;;;;10.57;9.52;;;;;;;;;;10141745;28;20068;-85
2023/10/01 08:23:33;;;;;;;11.05;9.48;;;;;;;;;;10111311;28;20088;-86
2023/10/01 08:28:29;;;;;;;10.63;9.53;;;;;;;;;;10109027;28;20131;-85
2023/10/01 08:33:26;;;;;;;10.18;8.82;;;;;;;;;;10108226;28;20052;-84
2023/10/01 08:38:21;;;;;;;18.25;11.52;;;;;;;;;;10127797;28;20037;-84
2023/10/01 08:43:21;;;;;;;10.40;9.35;;;;;;;;;;10107921;28;20067;-85
2023/10/01 08:48:17;;;;;;;15.00;10.30;;;;;;;;;;10112748;28;20057;-85
2023/10/01 08:53:13;;;;;;;11.82;10.40;;;;;;;;;;10114611;28;20075;-85
2023/10/01 09:03:28;;;;;;;14.63;10.38;;;;;;;;;;10087017;28;20414;-85
2023/10/01 09:08:42;;;;;;;11.18;10.15;;;;;;;;;;10139413;28;20450;-85
2023/10/01 09:13:58;;;;;;;12.50;10.38;;;;;;;;;;10143307;28;20139;-85
2023/10/01 09:19:03;;;;;;;11.85;10.63;;;;;;;;;;10034409;28;20049;-86
2023/10/01 09:24:12;;;;;;;12.82;10.50;;;;;;;;;;10049600;28;20528;-86
2023/10/01 09:29:22;;;;;;;11.93;10.73;;;;;;;;;;10047024;28;20107;-84
2023/10/01 09:34:31;;;;;;;12.82;11.45;;;;;;;;;;10062071;28;20421;-84
2023/10/01 09:39:47;;;;;;;10.60;9.57;;;;;;;;;;10058789;28;20057;-85
2023/10/01 09:44:46;;;;;;;11.25;10.13;;;;;;;;;;10061480;28;20037;-85
2023/10/01 09:49:41;;;;;;;10.57;9.40;;;;;;;;;;10032484;28;20567;-85
2023/10/01 09:54:41;;;;;;;13.52;9.75;;;;;;;;;;10061728;28;20096;-85
2023/10/01 09:59:39;;;;;;;12.13;9.95;;;;;;;;;;10043018;28;20058;-86
2023/10/01 10:04:38;;;;;;;10.23;7.32;;;;;;;;;;10062616;28;20052;-85
2023/10/01 10:09:33;;;;;;;10.93;9.88;;;;;;;;;;10043086;28;20051;-85
2023/10/01 10:14:33;;;;;;;10.30;7.22;;;;;;;;;;10099501;28;20059;-85
2023/10/01 10:19:47;;;;;;;8.18;6.47;;;;;;;;;;10119266;28;20049;-86
2023/10/01 10:24:47;;;;;;;10.65;6.88;;;;;;;;;;10120841;28;20045;-85
2023/10/01 10:29:46;;;;;;;12.98;8.05;;;;;;;;;;10138097;28;20040;-84
2023/10/01 10:35:05;;;;;;;12.80;7.90;;;;;;;;;;10146290;28;20458;-85
2023/10/01 10:40:12;;;;;;;12.38;9.65;;;;;;;;;;10145336;28;20388;-86
2023/10/01 10:45:20;;;;;;;10.48;7.75;;;;;;;;;;10145588;28;20067;-85
2023/10/01 10:50:16;;;;;;;9.00;6.23;;;;;;;;;;10131592;28;20403;-85
2023/10/01 10:55:18;;;;;;;12.30;7.40;;;;;;;;;;10130401;28;20049;-85
2023/10/01 11:00:23;;;;;;;10.25;7.80;;;;;;;;;;10137506;28;20059;-87
2023/10/01 11:05:20;;;;;;;13.20;9.00;;;;;;;;;;10103858;28;20044;-84
2023/10/01 11:10:13;;;;;;;14.95;8.80;;;;;;;;;;10147229;28;20159;-85
2023/10/01 11:15:24;;;;;;;10.40;7.25;;;;;;;;;;10145042;28;20166;-84
2023/10/01 11:20:45;;;;;;;11.65;6.68;;;;;;;;;;10134412;28;20044;-84
2023/10/01 11:25:56;;;;;;;9.88;6.28;;;;;;;;;;10144952;28;20067;-85
2023/10/01 11:31:31;;;;;;;6.70;5.97;;;;;;;;;;10142526;28;20076;-86
2023/10/01 11:36:24;;;;;;;6.65;5.38;;;;;;;;;;10132460;28;20143;-84
2023/10/01 11:41:38;;;;;;;6.13;5.53;;;;;;;;;;10145055;28;20147;-84
2023/10/01 11:51:54;;;;;;;7.80;6.03;;;;;;;;;;10144363;28;20402;-84
2023/10/01 11:57:08;;;;;;;8.55;5.75;;;;;;;;;;10141787;28;20063;-85
2023/10/01 12:02:20;;;;;;;8.40;6.03;;;;;;;;;;10127753;28;20223;-85
2023/10/01 12:07:16;;;;;;;10.40;5.95;;;;;;;;;;10107303;28;20055;-85
2023/10/01 12:12:10;;;;;;;10.18;5.00;;;;;;;;;;10137243;28;20032;-86
2023/10/01 12:17:04;;;;;;;5.63;5.07;;;;;;;;;;10145786;28;20061;-85
2023/10/01 12:22:06;;;;;;;11.23;5.20;;;;;;;;;;10135500;28;20079;-85
2023/10/01 12:27:00;;;;;;;8.95;5.70;;;;;;;;;;10142371;28;20049;-86
2023/10/01 12:31:59;;;;;;;7.25;6.05;;;;;;;;;;10136602;28;20044;-86
2023/10/01 12:36:55;;;;;;;11.75;6.35;;;;;;;;;;10142424;28;20045;-85
2023/10/01 12:46:51;;;;;;;7.80;5.78;;;;;;;;;;10142622;28;20044;-85
2023/10/01 12:51:54;;;;;;;7.03;5.53;;;;;;;;;;10136986;28;20051;-86
2023/10/01 12:57:02;;;;;;;7.40;5.43;;;;;;;;;;10144687;28;20066;-86
2023/10/01 13:01:58;;;;;;;8.48;5.55;;;;;;;;;;10142856;28;20080;-85
2023/10/01 13:07:03;;;;;;;12.45;6.03;;;;;;;;;;10142116;28;20454;-86
2023/10/01 13:12:16;;;;;;;9.90;5.65;;;;;;;;;;10141623;28;20060;-86
2023/10/01 13:17:20;;;;;;;6.22;5.38;;;;;;;;;;10141311;28;20056;-85
2023/10/01 13:22:18;;;;;;;5.60;5.03;;;;;;;;;;10139433;28;20056;-86
2023/10/01 13:27:16;;;;;;;7.65;4.63;;;;;;;;;;10140050;28;20053;-84
2023/10/01 13:32:16;;;;;;;;;;;;;;;;;;10138986;28;20051;-85
2023/10/01 13:37:41;;;;;;;7.00;4.82;;;;;;;;;;10139565;28;19924;-86
2023/10/01 14:08:43;;;;;;;4.38;3.97;;;;;;;;;;10158320;28;20040;-87
2023/10/01 14:13:41;;;;;;;5.32;4.22;;;;;;;;;;10159795;28;20048;-88
2023/10/01 14:18:40;;;;;;;8.45;4.43;;;;;;;;;;10127184;28;20044;-87
2023/10/01 14:23:42;;;;;;;6.18;4.28;;;;;;;;;;10128872;28;20056;-86
2023/10/01 14:28:45;;;;;;;6.72;4.72;;;;;;;;;;10150371;28;20079;-88
2023/10/01 14:33:40;;;;;;;5.65;4.22;;;;;;;;;;10129804;28;20534;-86
2023/10/01 14:38:37;;;;;;;7.85;4.72;;;;;;;;;;10119685;28;20139;-87
2023/10/01 14:43:32;;;;;;;12.43;6.07;;;;;;;;;;10118553;28;20459;-88
2023/10/01 14:48:25;;;;;;;8.07;5.03;;;;;;;;;;10123720;28;20407;-86
2023/10/01 14:53:19;;;;;;;13.18;5.13;;;;;;;;;;10126191;28;20484;-88
2023/10/01 14:58:14;;;;;;;6.43;5.28;;;;;;;;;;10108618;28;20045;-86
2023/10/01 15:03:09;;;;;;;9.77;5.50;;;;;;;;;;10113721;28;20084;-86
2023/10/01 15:08:03;;;;;;;5.00;3.92;;;;;;;;;;10100088;28;20057;-86
2023/10/01 15:12:57;;;;;;;32.90;8.50;;;;;;;;;;10124468;28;20049;-88
2023/10/01 15:17:59;;;;;;;14.90;6.18;;;;;;;;;;10137369;28;20080;-87
2023/10/01 15:22:55;;;;;;;11.27;6.03;;;;;;;;;;10147474;28;20048;-87
2023/10/01 15:27:49;;;;;;;7.82;4.40;;;;;;;;;;10137333;28;20048;-88
2023/10/01 15:32:55;;;;;;;8.32;5.00;;;;;;;;;;10141154;28;20059;-87
2023/10/01 15:37:50;;;;;;;5.82;4.32;;;;;;;;;;10115522;28;20496;-88
2023/10/01 15:42:53;;;;;;;6.80;5.18;;;;;;;;;;10141540;28;20098;-88
2023/10/01 15:47:48;;;;;;;5.43;4.55;;;;;;;;;;10114035;28;20052;-88
2023/10/01 15:52:46;;;;;;;9.70;4.40;;;;;;;;;;10108598;28;20745;-88
2023/10/01 15:57:43;;;;;;;8.20;5.35;;;;;;;;;;10092442;28;20066;-86
2023/10/01 16:03:02;;;;;;;7.07;4.60;;;;;;;;;;10117079;28;20424;-89
2023/10/01 16:07:57;;;;;;;9.20;5.03;;;;;;;;;;10148594;28;20033;-87
2023/10/01 16:12:52;;;;;;;8.18;4.93;;;;;;;;;;10141813;28;20454;-87
2023/10/01 16:17:46;;;;;;;5.60;4.18;;;;;;;;;;10118745;28;20083;-86
2023/10/01 16:22:40;;;;;;;6.97;6.28;;;;;;;;;;10120104;28;20136;-86
2023/10/01 16:27:37;;;;;;;9.35;5.80;;;;;;;;;;10110384;28;20051;-87
2023/10/01 16:32:36;;;;;;;8.75;5.38;;;;;;;;;;10117562;28;20048;-87
2023/10/01 16:37:30;;;;;;;7.00;5.30;;;;;;;;;;10113907;28;20051;-87
2023/10/01 16:42:23;;;;;;;6.72;4.80;;;;;;;;;;10108717;28;20045;-87
2023/10/01 16:47:30;;;;;;;12.40;8.25;;;;;;;;;;10119517;28;20081;-88
2023/10/01 16:52:25;;;;;;;6.82;6.18;;;;;;;;;;10127004;28;20127;-87
2023/10/01 16:57:25;;;;;;;7.97;6.68;;;;;;;;;;10107381;28;20047;-86
2023/10/01 17:02:20;;;;;;;6.53;5.90;;;;;;;;;;10118775;28;20033;-86
2023/10/01 17:07:15;;;;;;;11.90;7.93;;;;;;;;;;10105814;28;20110;-86
2023/10/01 17:12:15;;;;;;;15.02;13.43;;;;;;;;;;10143893;28;20048;-86
2023/10/01 17:17:12;;;;;;;8.15;6.32;;;;;;;;;;10147299;28;20057;-86
2023/10/01 17:22:09;;;;;;;9.48;4.85;;;;;;;;;;10152325;28;20056;-86
2023/10/01 17:27:06;;;;;;;18.95;16.75;;;;;;;;;;10134663;28;20057;-87
2023/10/01 17:32:04;;;;;;;18.77;16.95;;;;;;;;;;10151478;28;20056;-87
2023/10/01 17:37:03;;;;;;;6.10;5.47;;;;;;;;;;10138676;28;20137;-88
2023/10/01 17:41:58;;;;;;;;;;;;;;;;;;10149170;28;20066;-88
2023/10/01 17:46:56;;;;;;;5.47;4.93;;;;;;;;;;10149944;28;19921;-87
2023/10/01 17:51:54;;;;;;;8.55;4.60;;;;;;;;;;10125469;28;20048;-88
2023/10/01 17:56:48;;;;;;;5.95;4.13;;;;;;;;;;10152337;28;20079;-88
2023/10/01 18:02:06;;;;;;;9.57;4.55;;;;;;;;;;10162847;28;20036;-88
2023/10/01 18:07:02;;;;;;;7.45;5.53;;;;;;;;;;10186299;28;20045;-88
2023/10/01 18:12:03;;;;;;;5.88;5.13;;;;;;;;;;10139341;28;20028;-88
2023/10/01 18:16:57;;;;;;;5.78;5.00;;;;;;;;;;10133540;28;20087;-87
2023/10/01 18:21:53;;;;;;;7.35;4.80;;;;;;;;;;10122046;28;20048;-87
2023/10/01 18:26:47;;;;;;;5.32;4.65;;;;;;;;;;10137247;28;20044;-87
2023/10/01 18:31:48;;;;;;;6.22;5.53;;;;;;;;;;10131245;28;20135;-87
2023/10/01 18:36:47;;;;;;;8.20;4.88;;;;;;;;;;10143696;28;20071;-87
2023/10/01 18:41:43;;;;;;;8.07;6.43;;;;;;;;;;10142066;28;20051;-86
2023/10/01 18:46:37;;;;;;;6.90;5.53;;;;;;;;;;10148706;28;20048;-85
2023/10/01 18:51:33;;;;;;;13.32;5.22;;;;;;;;;;10146296;28;20048;-85
2023/10/01 18:56:27;;;;;;;8.88;4.72;;;;;;;;;;10149297;28;20059;-86
2023/10/01 19:01:22;;;;;;;5.72;5.18;;;;;;;;;;10146781;28;20056;-86
2023/10/01 19:06:18;;;;;;;6.00;5.35;;;;;;;;;;10122009;28;20130;-85
2023/10/01 19:11:12;;;;;;;10.23;5.47;;;;;;;;;;10120876;28;20048;-86
2023/10/01 19:16:08;;;;;;;5.50;5.00;;;;;;;;;;10136435;28;20064;-87
2023/10/01 19:21:02;;;;;;;7.03;4.90;;;;;;;;;;10124799;28;20094;-86
2023/10/01 19:26:00;;;;;;;7.68;5.05;;;;;;;;;;10145085;28;20521;-85
2023/10/01 19:30:53;;;;;;;12.48;5.03;;;;;;;;;;10146062;28;20050;-86
2023/10/01 19:35:51;;;;;;;5.80;5.22;;;;;;;;;;10135599;28;20106;-85
2023/10/01 19:40:49;;;;;;;11.80;4.97;;;;;;;;;;10142183;28;20057;-85
2023/10/01 19:45:44;;;;;;;6.32;5.63;;;;;;;;;;10148336;28;20114;-86
2023/10/01 19:50:45;;;;;;;7.32;4.80;;;;;;;;;;10135538;28;20127;-85
2023/10/01 19:55:57;;;;;;;7.13;5.22;;;;;;;;;;10130536;28;20076;-85
2023/10/01 20:00:52;;;;;;;9.32;5.72;;;;;;;;;;10154159;28;20073;-85
2023/10/01 20:05:53;;;;;;;7.13;5.38;;;;;;;;;;10137388;28;20134;-67
2023/10/01 20:10:45;;;;;;;6.13;5.50;;;;;;;;;;10124337;28;20132;-66
2023/10/01 20:15:42;;;;;;;5.03;4.63;;;;;;;;;;10119348;28;20049;-68
2023/10/01 20:20:34;;;;;;;7.80;5.90;;;;;;;;;;10130980;28;20455;-67
2023/10/01 20:25:34;;;;;;;8.77;5.35;;;;;;;;;;10131852;28;20115;-67
2023/10/01 20:30:31;;;;;;;11.70;5.78;;;;;;;;;;10114394;28;20045;-67
2023/10/01 20:35:23;;;;;;;5.78;5.28;;;;;;;;;;10091956;28;20042;-67
2023/10/01 20:40:18;;;;;;;10.75;5.72;;;;;;;;;;10092708;28;20049;-68
2023/10/01 20:45:23;;;;;;;8.23;5.63;;;;;;;;;;10079597;28;20122;-67
2023/10/01 20:50:32;;;;;;;8.27;5.50;;;;;;;;;;10088267;28;20080;-67
2023/10/01 20:55:24;;;;;;;7.40;6.60;;;;;;;;;;10087194;28;20391;-69
2023/10/01 21:00:35;;;;;;;6.85;5.60;;;;;;;;;;10089875;28;20414;-67
2023/10/01 21:05:27;;;;;;;5.80;5.10;;;;;;;;;;10089026;28;20081;-70
2023/10/01 21:10:22;;;;;;;15.02;6.80;;;;;;;;;;10096930;28;20080;-69
2023/10/01 21:15:20;;;;;;;11.52;5.68;;;;;;;;;;10075075;28;20033;-70
2023/10/01 21:20:14;;;;;;;8.47;5.07;;;;;;;;;;10067136;28;20057;-68
2023/10/01 21:25:21;;;;;;;9.40;5.25;;;;;;;;;;10065597;28;20089;-70
2023/10/01 21:30:16;;;;;;;6.53;5.93;;;;;;;;;;10058480;28;20464;-69
2023/10/01 21:35:08;;;;;;;9.98;5.93;;;;;;;;;;10066974;28;20148;-69
2023/10/01 21:40:00;;;;;;;8.90;5.18;;;;;;;;;;10064950;28;20045;-70
2023/10/01 21:44:52;;;;;;;7.55;5.68;;;;;;;;;;10068076;28;20136;-70
2023/10/01 21:49:46;;;;;;;6.15;5.50;;;;;;;;;;10063564;28;20376;-70
2023/10/01 21:54:38;;;;;;;5.95;5.32;;;;;;;;;;10066029;28;20037;-69
2023/10/01 21:59:37;;;;;;;7.63;5.90;;;;;;;;;;10065158;28;20056;-71
2023/10/01 22:04:29;;;;;;;10.73;6.03;;;;;;;;;;10068256;28;20049;-70
2023/10/01 22:09:23;;;;;;;6.28;5.20;;;;;;;;;;10064056;28;20052;-71
2023/10/01 22:14:18;;;;;;;6.90;5.97;;;;;;;;;;10064553;28;20041;-69
2023/10/01 22:19:12;;;;;;;7.47;5.35;;;;;;;;;;10064851;28;20073;-71
2023/10/01 22:24:16;;;;;;;8.63;6.53;;;;;;;;;;10064307;28;20057;-70
2023/10/01 22:29:10;;;;;;;9.95;5.85;;;;;;;;;;10062821;28;20041;-71
2023/10/01 22:34:04;;;;;;;7.85;5.85;;;;;;;;;;10064147;28;20064;-69
2023/10/01 22:38:57;;;;;;;7.10;6.22;;;;;;;;;;10063839;28;20041;-71
2023/10/01 22:43:58;;;;;;;7.70;6.00;;;;;;;;;;10063114;28;20145;-71
2023/10/01 22:48:52;;;;;;;10.85;5.75;;;;;;;;;;10061911;28;20133;-70
2023/10/01 22:53:44;;;;;;;6.28;5.50;;;;;;;;;;10063398;28;20149;-70
2023/10/01 22:58:36;;;;;;;6.30;5.60;;;;;;;;;;10061280;28;20041;-70
2023/10/01 23:03:30;;;;;;;11.23;5.97;;;;;;;;;;10062383;28;20479;-70
2023/10/01 23:08:23;;;;;;;6.32;5.03;;;;;;;;;;10062231;28;20049;-70
2023/10/01 23:13:19;;;;;;;7.65;5.82;;;;;;;;;;10062840;28;20033;-70
2023/10/01 23:18:24;;;;;;;7.17;5.93;;;;;;;;;;10062369;28;20045;-70
2023/10/01 23:23:20;;;;;;;6.65;6.03;;;;;;;;;;10061718;28;20041;-71
2023/10/01 23:28:14;;;;;;;7.25;6.55;;;;;;;;;;10044987;28;20037;-70
2023/10/01 23:33:09;;;;;;;7.32;5.90;;;;;;;;;;10065238;28;20140;-70
2023/10/01 23:38:25;;;;;;;6.43;5.57;;;;;;;;;;10065241;28;20033;-70
2023/10/01 23:43:13;;;;;;;7.18;6.35;;;;;;;;;;10064907;28;20128;-71
2023/10/01 23:48:13;;;;;;;9.20;6.55;;;;;;;;;;10064575;28;21111;-70
2023/10/01 23:53:18;;;;;;;7.53;6.78;;;;;;;;;;10063406;28;20550;-71
2023/10/01 23:58:20;;;;;;;6.47;5.85;;;;;;;;;;10060276;28;20391;-70
